sensor_id;sensor_type;location;lat;lon;timestamp;temperature;humidity
20921;DHT22;10620;52.472;21.028;2022-07-29T00:00:24;12.90;99.90
20921;DHT22;10620;52.472;21.028;2022-07-29T00:02:52;12.90;99.90
20921;DHT22;10620;52.472;21.028;2022-07-29T00:05:22;12.90;99.90
20921;DHT22;10620;52.472;21.028;2022-07-29T00:07:51;12.90;99.90
20921;DHT22;10620;52.472;21.028;2022-07-29T00:10:20;12.90;99.90
20921;DHT22;10620;52.472;21.028;2022-07-29T00:12:48;12.90;99.90
20921;DHT22;10620;52.472;21.028;2022-07-29T00:15:18;12.90;99.90
20921;DHT22;10620;52.472;21.028;2022-07-29T00:17:47;12.80;99.90
20921;DHT22;10620;52.472;21.028;2022-07-29T00:20:15;12.90;99.90
20921;DHT22;10620;52.472;21.028;2022-07-29T00:22:45;12.90;99.90
20921;DHT22;10620;52.472;21.028;2022-07-29T00:25:14;12.90;99.90
20921;DHT22;10620;52.472;21.028;2022-07-29T00:27:43;12.90;99.90
20921;DHT22;10620;52.472;21.028;2022-07-29T00:30:12;13.00;99.90
20921;DHT22;10620;52.472;21.028;2022-07-29T00:32:41;13.00;99.90
20921;DHT22;10620;52.472;21.028;2022-07-29T00:35:10;13.00;99.90
20921;DHT22;10620;52.472;21.028;2022-07-29T00:37:58;13.00;99.90
20921;DHT22;10620;52.472;21.028;2022-07-29T00:40:28;13.00;99.90
20921;DHT22;10620;52.472;21.028;2022-07-29T00:42:56;13.00;99.90
20921;DHT22;10620;52.472;21.028;2022-07-29T00:45:25;13.00;99.90
20921;DHT22;10620;52.472;21.028;2022-07-29T00:47:54;13.10;99.90
20921;DHT22;10620;52.472;21.028;2022-07-29T00:50:23;13.10;99.90
20921;DHT22;10620;52.472;21.028;2022-07-29T00:52:52;13.10;99.90
20921;DHT22;10620;52.472;21.028;2022-07-29T00:55:22;13.10;99.90
20921;DHT22;10620;52.472;21.028;2022-07-29T00:57:51;13.10;99.90
20921;DHT22;10620;52.472;21.028;2022-07-29T01:00:21;13.10;99.90
20921;DHT22;10620;52.472;21.028;2022-07-29T01:02:50;13.00;99.90
20921;DHT22;10620;52.472;21.028;2022-07-29T01:05:19;13.00;99.90
20921;DHT22;10620;52.472;21.028;2022-07-29T01:07:48;13.10;99.90
20921;DHT22;10620;52.472;21.028;2022-07-29T01:10:19;13.10;99.90
20921;DHT22;10620;52.472;21.028;2022-07-29T01:12:51;13.10;99.90
20921;DHT22;10620;52.472;21.028;2022-07-29T01:15:20;13.00;99.90
20921;DHT22;10620;52.472;21.028;2022-07-29T01:17:51;13.00;99.90
20921;DHT22;10620;52.472;21.028;2022-07-29T01:20:24;12.90;99.90
20921;DHT22;10620;52.472;21.028;2022-07-29T01:23:05;12.90;99.90
20921;DHT22;10620;52.472;21.028;2022-07-29T01:31:14;13.00;99.90
20921;DHT22;10620;52.472;21.028;2022-07-29T01:33:52;12.90;99.90
20921;DHT22;10620;52.472;21.028;2022-07-29T01:36:25;12.90;99.90
20921;DHT22;10620;52.472;21.028;2022-07-29T01:38:57;12.90;99.90
20921;DHT22;10620;52.472;21.028;2022-07-29T01:41:27;12.80;99.90
20921;DHT22;10620;52.472;21.028;2022-07-29T01:43:59;12.80;99.90
20921;DHT22;10620;52.472;21.028;2022-07-29T01:46:30;12.80;99.90
20921;DHT22;10620;52.472;21.028;2022-07-29T01:49:02;12.80;99.90
20921;DHT22;10620;52.472;21.028;2022-07-29T01:51:35;12.70;99.90
20921;DHT22;10620;52.472;21.028;2022-07-29T01:54:08;12.70;99.90
20921;DHT22;10620;52.472;21.028;2022-07-29T01:56:39;12.60;99.90
20921;DHT22;10620;52.472;21.028;2022-07-29T01:59:10;12.50;99.90
20921;DHT22;10620;52.472;21.028;2022-07-29T02:01:41;12.50;99.90
20921;DHT22;10620;52.472;21.028;2022-07-29T02:04:11;12.50;99.90
20921;DHT22;10620;52.472;21.028;2022-07-29T02:06:57;12.50;99.90
20921;DHT22;10620;52.472;21.028;2022-07-29T02:09:27;12.50;99.90
20921;DHT22;10620;52.472;21.028;2022-07-29T02:11:57;12.60;99.90
20921;DHT22;10620;52.472;21.028;2022-07-29T02:14:27;12.50;99.90
20921;DHT22;10620;52.472;21.028;2022-07-29T02:16:58;12.50;99.90
20921;DHT22;10620;52.472;21.028;2022-07-29T02:19:29;12.50;99.90
20921;DHT22;10620;52.472;21.028;2022-07-29T02:21:59;12.40;99.90
20921;DHT22;10620;52.472;21.028;2022-07-29T02:24:28;12.40;99.90
20921;DHT22;10620;52.472;21.028;2022-07-29T02:26:58;12.40;99.90
20921;DHT22;10620;52.472;21.028;2022-07-29T02:29:28;12.40;99.90
20921;DHT22;10620;52.472;21.028;2022-07-29T02:31:59;12.40;99.90
20921;DHT22;10620;52.472;21.028;2022-07-29T02:34:28;12.40;99.90
20921;DHT22;10620;52.472;21.028;2022-07-29T02:36:57;12.40;99.90
20921;DHT22;10620;52.472;21.028;2022-07-29T02:39:27;12.40;99.90
20921;DHT22;10620;52.472;21.028;2022-07-29T02:41:57;12.40;99.90
20921;DHT22;10620;52.472;21.028;2022-07-29T02:44:28;12.40;99.90
20921;DHT22;10620;52.472;21.028;2022-07-29T02:47:03;12.40;99.90
20921;DHT22;10620;52.472;21.028;2022-07-29T02:49:35;12.40;99.90
20921;DHT22;10620;52.472;21.028;2022-07-29T02:52:07;12.50;99.90
20921;DHT22;10620;52.472;21.028;2022-07-29T02:54:38;12.50;99.90
20921;DHT22;10620;52.472;21.028;2022-07-29T02:57:09;12.60;99.90
20921;DHT22;10620;52.472;21.028;2022-07-29T02:59:39;12.70;99.90
20921;DHT22;10620;52.472;21.028;2022-07-29T03:02:12;12.70;99.90
20921;DHT22;10620;52.472;21.028;2022-07-29T03:04:42;12.80;99.90
20921;DHT22;10620;52.472;21.028;2022-07-29T03:07:13;12.90;99.90
20921;DHT22;10620;52.472;21.028;2022-07-29T03:09:43;12.90;99.90
20921;DHT22;10620;52.472;21.028;2022-07-29T03:12:12;12.90;99.90
20921;DHT22;10620;52.472;21.028;2022-07-29T03:14:42;12.80;99.90
20921;DHT22;10620;52.472;21.028;2022-07-29T03:17:12;12.80;99.90
20921;DHT22;10620;52.472;21.028;2022-07-29T03:19:41;12.80;99.90
20921;DHT22;10620;52.472;21.028;2022-07-29T03:22:10;12.80;99.90
20921;DHT22;10620;52.472;21.028;2022-07-29T03:24:39;12.80;99.90
20921;DHT22;10620;52.472;21.028;2022-07-29T03:27:07;12.80;99.90
20921;DHT22;10620;52.472;21.028;2022-07-29T03:29:36;12.90;99.90
20921;DHT22;10620;52.472;21.028;2022-07-29T03:32:05;12.90;99.90
20921;DHT22;10620;52.472;21.028;2022-07-29T03:34:36;12.90;99.90
20921;DHT22;10620;52.472;21.028;2022-07-29T03:37:05;13.00;99.90
20921;DHT22;10620;52.472;21.028;2022-07-29T03:39:36;13.00;99.90
20921;DHT22;10620;52.472;21.028;2022-07-29T03:42:08;13.00;99.90
20921;DHT22;10620;52.472;21.028;2022-07-29T03:44:39;13.00;99.90
20921;DHT22;10620;52.472;21.028;2022-07-29T03:47:09;13.10;99.90
20921;DHT22;10620;52.472;21.028;2022-07-29T03:49:40;13.10;99.90
20921;DHT22;10620;52.472;21.028;2022-07-29T03:52:10;13.10;99.90
20921;DHT22;10620;52.472;21.028;2022-07-29T03:54:39;13.20;99.90
20921;DHT22;10620;52.472;21.028;2022-07-29T03:57:08;13.20;99.90
20921;DHT22;10620;52.472;21.028;2022-07-29T03:59:38;13.20;99.90
20921;DHT22;10620;52.472;21.028;2022-07-29T04:02:08;13.30;99.90
20921;DHT22;10620;52.472;21.028;2022-07-29T04:04:37;13.30;99.90
20921;DHT22;10620;52.472;21.028;2022-07-29T04:07:08;13.40;99.90
20921;DHT22;10620;52.472;21.028;2022-07-29T04:09:39;13.40;99.90
20921;DHT22;10620;52.472;21.028;2022-07-29T04:12:08;13.50;99.90
20921;DHT22;10620;52.472;21.028;2022-07-29T04:14:37;13.60;99.90
20921;DHT22;10620;52.472;21.028;2022-07-29T04:17:06;13.60;99.90
20921;DHT22;10620;52.472;21.028;2022-07-29T04:19:35;13.70;99.90
20921;DHT22;10620;52.472;21.028;2022-07-29T04:22:03;13.70;99.90
20921;DHT22;10620;52.472;21.028;2022-07-29T04:24:34;13.80;99.90
20921;DHT22;10620;52.472;21.028;2022-07-29T04:27:02;13.80;99.90
20921;DHT22;10620;52.472;21.028;2022-07-29T04:29:31;14.00;99.90
20921;DHT22;10620;52.472;21.028;2022-07-29T04:32:00;14.00;99.90
20921;DHT22;10620;52.472;21.028;2022-07-29T04:34:29;14.10;99.90
20921;DHT22;10620;52.472;21.028;2022-07-29T04:36:57;15.10;99.90
20921;DHT22;10620;52.472;21.028;2022-07-29T04:39:26;14.20;99.90
20921;DHT22;10620;52.472;21.028;2022-07-29T04:41:57;14.30;99.90
20921;DHT22;10620;52.472;21.028;2022-07-29T04:44:27;14.40;99.90
20921;DHT22;10620;52.472;21.028;2022-07-29T04:46:56;14.50;99.90
20921;DHT22;10620;52.472;21.028;2022-07-29T04:49:25;14.50;99.90
20921;DHT22;10620;52.472;21.028;2022-07-29T04:51:54;14.60;99.90
20921;DHT22;10620;52.472;21.028;2022-07-29T04:54:23;14.70;99.90
20921;DHT22;10620;52.472;21.028;2022-07-29T04:56:52;14.70;99.90
20921;DHT22;10620;52.472;21.028;2022-07-29T04:59:22;14.80;99.90
20921;DHT22;10620;52.472;21.028;2022-07-29T05:01:52;14.80;99.90
20921;DHT22;10620;52.472;21.028;2022-07-29T05:04:20;14.80;99.90
20921;DHT22;10620;52.472;21.028;2022-07-29T05:06:50;14.90;99.90
20921;DHT22;10620;52.472;21.028;2022-07-29T05:09:18;15.10;99.90
20921;DHT22;10620;52.472;21.028;2022-07-29T05:11:47;15.10;99.90
20921;DHT22;10620;52.472;21.028;2022-07-29T05:14:16;15.10;99.90
20921;DHT22;10620;52.472;21.028;2022-07-29T05:16:46;15.30;99.90
20921;DHT22;10620;52.472;21.028;2022-07-29T05:19:18;15.30;99.90
20921;DHT22;10620;52.472;21.028;2022-07-29T05:21:46;15.40;99.90
20921;DHT22;10620;52.472;21.028;2022-07-29T05:24:15;15.50;99.90
20921;DHT22;10620;52.472;21.028;2022-07-29T05:26:45;15.60;99.90
20921;DHT22;10620;52.472;21.028;2022-07-29T05:29:14;15.70;99.90
20921;DHT22;10620;52.472;21.028;2022-07-29T05:32:04;15.80;99.90
20921;DHT22;10620;52.472;21.028;2022-07-29T05:34:33;15.90;99.90
20921;DHT22;10620;52.472;21.028;2022-07-29T05:37:02;16.00;99.90
20921;DHT22;10620;52.472;21.028;2022-07-29T05:39:30;16.10;99.90
20921;DHT22;10620;52.472;21.028;2022-07-29T05:42:15;16.20;99.90
20921;DHT22;10620;52.472;21.028;2022-07-29T05:44:44;16.30;99.90
20921;DHT22;10620;52.472;21.028;2022-07-29T05:47:16;16.40;99.90
20921;DHT22;10620;52.472;21.028;2022-07-29T05:49:44;16.50;99.90
20921;DHT22;10620;52.472;21.028;2022-07-29T05:52:13;16.60;99.90
20921;DHT22;10620;52.472;21.028;2022-07-29T05:54:42;16.70;99.90
20921;DHT22;10620;52.472;21.028;2022-07-29T05:57:14;16.80;99.90
20921;DHT22;10620;52.472;21.028;2022-07-29T05:59:43;16.90;99.90
20921;DHT22;10620;52.472;21.028;2022-07-29T06:02:12;17.10;99.90
20921;DHT22;10620;52.472;21.028;2022-07-29T06:04:42;17.20;99.90
20921;DHT22;10620;52.472;21.028;2022-07-29T06:07:11;17.30;99.90
20921;DHT22;10620;52.472;21.028;2022-07-29T06:09:39;17.40;99.90
20921;DHT22;10620;52.472;21.028;2022-07-29T06:12:08;17.50;99.90
20921;DHT22;10620;52.472;21.028;2022-07-29T06:14:37;17.50;99.90
20921;DHT22;10620;52.472;21.028;2022-07-29T06:17:06;17.70;99.90
20921;DHT22;10620;52.472;21.028;2022-07-29T06:19:35;17.80;99.90
20921;DHT22;10620;52.472;21.028;2022-07-29T06:22:06;17.90;99.90
20921;DHT22;10620;52.472;21.028;2022-07-29T06:24:35;18.00;99.90
20921;DHT22;10620;52.472;21.028;2022-07-29T06:27:04;18.10;99.90
20921;DHT22;10620;52.472;21.028;2022-07-29T06:29:33;18.10;99.90
20921;DHT22;10620;52.472;21.028;2022-07-29T06:32:02;18.30;99.90
20921;DHT22;10620;52.472;21.028;2022-07-29T06:34:30;18.40;99.90
20921;DHT22;10620;52.472;21.028;2022-07-29T06:36:59;18.40;99.90
20921;DHT22;10620;52.472;21.028;2022-07-29T06:39:31;18.50;99.90
20921;DHT22;10620;52.472;21.028;2022-07-29T06:42:01;18.50;99.90
20921;DHT22;10620;52.472;21.028;2022-07-29T06:44:31;18.60;99.90
20921;DHT22;10620;52.472;21.028;2022-07-29T06:47:01;18.50;99.90
20921;DHT22;10620;52.472;21.028;2022-07-29T06:49:29;18.50;99.90
20921;DHT22;10620;52.472;21.028;2022-07-29T06:51:59;18.50;99.90
20921;DHT22;10620;52.472;21.028;2022-07-29T06:54:27;18.60;99.90
20921;DHT22;10620;52.472;21.028;2022-07-29T06:56:58;18.60;99.90
20921;DHT22;10620;52.472;21.028;2022-07-29T06:59:26;18.70;99.90
20921;DHT22;10620;52.472;21.028;2022-07-29T07:02:01;18.70;99.90
20921;DHT22;10620;52.472;21.028;2022-07-29T07:04:30;18.80;99.90
20921;DHT22;10620;52.472;21.028;2022-07-29T07:06:59;18.90;99.90
20921;DHT22;10620;52.472;21.028;2022-07-29T07:09:28;19.00;99.90
20921;DHT22;10620;52.472;21.028;2022-07-29T07:12:08;19.10;99.90
20921;DHT22;10620;52.472;21.028;2022-07-29T07:14:37;19.10;99.90
20921;DHT22;10620;52.472;21.028;2022-07-29T07:17:06;19.10;99.90
20921;DHT22;10620;52.472;21.028;2022-07-29T07:19:35;19.10;99.90
20921;DHT22;10620;52.472;21.028;2022-07-29T07:22:04;19.20;99.90
20921;DHT22;10620;52.472;21.028;2022-07-29T07:24:32;19.30;99.90
20921;DHT22;10620;52.472;21.028;2022-07-29T07:27:01;19.40;99.90
20921;DHT22;10620;52.472;21.028;2022-07-29T07:29:31;19.50;99.90
20921;DHT22;10620;52.472;21.028;2022-07-29T07:32:00;19.60;99.90
20921;DHT22;10620;52.472;21.028;2022-07-29T07:34:28;19.70;99.90
20921;DHT22;10620;52.472;21.028;2022-07-29T07:36:58;19.60;99.90
20921;DHT22;10620;52.472;21.028;2022-07-29T07:39:26;20.00;99.90
20921;DHT22;10620;52.472;21.028;2022-07-29T07:41:55;20.00;99.90
20921;DHT22;10620;52.472;21.028;2022-07-29T07:44:24;20.10;99.90
20921;DHT22;10620;52.472;21.028;2022-07-29T07:46:54;20.20;99.90
20921;DHT22;10620;52.472;21.028;2022-07-29T07:49:29;20.10;99.90
20921;DHT22;10620;52.472;21.028;2022-07-29T07:51:58;20.20;99.90
20921;DHT22;10620;52.472;21.028;2022-07-29T07:54:27;20.20;99.90
20921;DHT22;10620;52.472;21.028;2022-07-29T07:56:56;20.20;99.90
20921;DHT22;10620;52.472;21.028;2022-07-29T07:59:24;20.40;99.90
20921;DHT22;10620;52.472;21.028;2022-07-29T08:01:55;20.50;99.90
20921;DHT22;10620;52.472;21.028;2022-07-29T08:04:24;20.70;99.90
20921;DHT22;10620;52.472;21.028;2022-07-29T08:06:55;20.90;99.90
20921;DHT22;10620;52.472;21.028;2022-07-29T08:09:25;21.00;99.90
20921;DHT22;10620;52.472;21.028;2022-07-29T08:11:57;21.10;99.90
20921;DHT22;10620;52.472;21.028;2022-07-29T08:14:26;21.00;99.90
20921;DHT22;10620;52.472;21.028;2022-07-29T08:16:56;21.00;99.90
20921;DHT22;10620;52.472;21.028;2022-07-29T08:19:25;21.10;99.90
20921;DHT22;10620;52.472;21.028;2022-07-29T08:21:54;21.10;99.90
20921;DHT22;10620;52.472;21.028;2022-07-29T08:24:23;21.10;99.90
20921;DHT22;10620;52.472;21.028;2022-07-29T08:27:09;21.10;99.90
20921;DHT22;10620;52.472;21.028;2022-07-29T08:29:58;21.20;99.90
20921;DHT22;10620;52.472;21.028;2022-07-29T08:32:28;21.30;99.90
20921;DHT22;10620;52.472;21.028;2022-07-29T08:35:18;21.30;99.90
20921;DHT22;10620;52.472;21.028;2022-07-29T08:37:47;21.40;99.90
20921;DHT22;10620;52.472;21.028;2022-07-29T08:40:16;21.40;99.90
20921;DHT22;10620;52.472;21.028;2022-07-29T08:42:45;21.50;99.90
20921;DHT22;10620;52.472;21.028;2022-07-29T08:45:14;21.60;99.90
20921;DHT22;10620;52.472;21.028;2022-07-29T08:47:44;21.80;99.90
20921;DHT22;10620;52.472;21.028;2022-07-29T08:50:13;22.00;99.90
20921;DHT22;10620;52.472;21.028;2022-07-29T08:52:42;22.00;99.90
20921;DHT22;10620;52.472;21.028;2022-07-29T08:55:11;22.00;99.90
20921;DHT22;10620;52.472;21.028;2022-07-29T08:57:48;22.10;99.90
20921;DHT22;10620;52.472;21.028;2022-07-29T09:00:20;22.20;99.90
20921;DHT22;10620;52.472;21.028;2022-07-29T09:02:54;22.30;99.90
20921;DHT22;10620;52.472;21.028;2022-07-29T09:05:24;22.40;99.90
20921;DHT22;10620;52.472;21.028;2022-07-29T09:07:54;22.40;99.90
20921;DHT22;10620;52.472;21.028;2022-07-29T09:10:23;22.40;99.90
20921;DHT22;10620;52.472;21.028;2022-07-29T09:12:53;22.70;99.90
20921;DHT22;10620;52.472;21.028;2022-07-29T09:15:22;22.80;99.90
20921;DHT22;10620;52.472;21.028;2022-07-29T09:17:56;22.90;99.90
20921;DHT22;10620;52.472;21.028;2022-07-29T09:20:26;22.90;99.90
20921;DHT22;10620;52.472;21.028;2022-07-29T09:23:14;22.80;99.90
20921;DHT22;10620;52.472;21.028;2022-07-29T09:25:50;23.70;99.90
20921;DHT22;10620;52.472;21.028;2022-07-29T09:28:19;23.50;99.90
20921;DHT22;10620;52.472;21.028;2022-07-29T09:30:50;23.50;99.90
20921;DHT22;10620;52.472;21.028;2022-07-29T09:33:21;23.30;99.90
20921;DHT22;10620;52.472;21.028;2022-07-29T09:35:58;23.20;99.90
20921;DHT22;10620;52.472;21.028;2022-07-29T09:38:28;23.20;99.90
20921;DHT22;10620;52.472;21.028;2022-07-29T09:40:57;23.10;99.90
20921;DHT22;10620;52.472;21.028;2022-07-29T09:43:32;23.40;99.90
20921;DHT22;10620;52.472;21.028;2022-07-29T09:51:36;23.30;99.90
20921;DHT22;10620;52.472;21.028;2022-07-29T09:56:49;23.10;99.90
20921;DHT22;10620;52.472;21.028;2022-07-29T09:59:19;23.00;99.90
20921;DHT22;10620;52.472;21.028;2022-07-29T10:01:51;23.10;99.90
20921;DHT22;10620;52.472;21.028;2022-07-29T10:04:21;23.10;99.90
20921;DHT22;10620;52.472;21.028;2022-07-29T10:06:58;23.30;99.90
20921;DHT22;10620;52.472;21.028;2022-07-29T10:09:31;23.60;99.90
20921;DHT22;10620;52.472;21.028;2022-07-29T10:12:07;23.90;99.90
20921;DHT22;10620;52.472;21.028;2022-07-29T10:14:36;24.50;99.90
20921;DHT22;10620;52.472;21.028;2022-07-29T10:17:05;24.60;99.90
20921;DHT22;10620;52.472;21.028;2022-07-29T10:19:35;24.40;99.90
20921;DHT22;10620;52.472;21.028;2022-07-29T10:22:06;24.50;99.90
20921;DHT22;10620;52.472;21.028;2022-07-29T10:24:36;24.50;99.90
20921;DHT22;10620;52.472;21.028;2022-07-29T10:27:06;24.40;99.90
20921;DHT22;10620;52.472;21.028;2022-07-29T10:29:36;24.50;99.90
20921;DHT22;10620;52.472;21.028;2022-07-29T10:35:03;24.70;99.90
20921;DHT22;10620;52.472;21.028;2022-07-29T10:37:42;24.80;99.90
20921;DHT22;10620;52.472;21.028;2022-07-29T10:40:17;24.70;99.70
20921;DHT22;10620;52.472;21.028;2022-07-29T10:43:08;24.80;99.90
20921;DHT22;10620;52.472;21.028;2022-07-29T10:45:42;24.80;99.20
20921;DHT22;10620;52.472;21.028;2022-07-29T10:48:12;25.10;99.90
20921;DHT22;10620;52.472;21.028;2022-07-29T10:53:47;25.30;96.00
20921;DHT22;10620;52.472;21.028;2022-07-29T10:56:23;25.40;94.10
20921;DHT22;10620;52.472;21.028;2022-07-29T11:01:43;25.60;93.10
20921;DHT22;10620;52.472;21.028;2022-07-29T11:07:28;26.00;88.80
20921;DHT22;10620;52.472;21.028;2022-07-29T11:10:25;26.00;88.00
20921;DHT22;10620;52.472;21.028;2022-07-29T11:12:58;26.30;91.80
20921;DHT22;10620;52.472;21.028;2022-07-29T11:15:27;26.20;90.20
20921;DHT22;10620;52.472;21.028;2022-07-29T11:18:05;26.10;87.50
20921;DHT22;10620;52.472;21.028;2022-07-29T11:20:42;26.20;90.30
20921;DHT22;10620;52.472;21.028;2022-07-29T11:23:19;26.40;88.90
20921;DHT22;10620;52.472;21.028;2022-07-29T11:28:34;26.80;82.20
20921;DHT22;10620;52.472;21.028;2022-07-29T11:31:06;26.90;90.60
20921;DHT22;10620;52.472;21.028;2022-07-29T11:33:37;27.00;79.30
20921;DHT22;10620;52.472;21.028;2022-07-29T11:36:23;27.00;83.10
20921;DHT22;10620;52.472;21.028;2022-07-29T11:41:41;27.20;80.70
20921;DHT22;10620;52.472;21.028;2022-07-29T11:44:12;27.20;72.90
20921;DHT22;10620;52.472;21.028;2022-07-29T11:46:44;27.10;73.30
20921;DHT22;10620;52.472;21.028;2022-07-29T11:49:18;26.90;76.40
20921;DHT22;10620;52.472;21.028;2022-07-29T11:51:58;26.80;80.10
20921;DHT22;10620;52.472;21.028;2022-07-29T11:54:30;27.00;79.40
20921;DHT22;10620;52.472;21.028;2022-07-29T11:57:18;27.40;78.50
20921;DHT22;10620;52.472;21.028;2022-07-29T11:59:49;27.90;77.80
20921;DHT22;10620;52.472;21.028;2022-07-29T12:02:19;28.30;74.80
20921;DHT22;10620;52.472;21.028;2022-07-29T12:05:07;28.50;77.60
20921;DHT22;10620;52.472;21.028;2022-07-29T12:07:38;28.40;72.30
20921;DHT22;10620;52.472;21.028;2022-07-29T12:10:11;28.60;75.60
20921;DHT22;10620;52.472;21.028;2022-07-29T12:12:56;28.70;68.90
20921;DHT22;10620;52.472;21.028;2022-07-29T12:15:26;26.40;66.80
20921;DHT22;10620;52.472;21.028;2022-07-29T12:18:17;27.90;72.80
20921;DHT22;10620;52.472;21.028;2022-07-29T12:20:56;27.70;71.60
20921;DHT22;10620;52.472;21.028;2022-07-29T12:23:25;27.70;68.20
20921;DHT22;10620;52.472;21.028;2022-07-29T12:26:03;27.80;69.80
20921;DHT22;10620;52.472;21.028;2022-07-29T12:28:37;28.00;66.20
20921;DHT22;10620;52.472;21.028;2022-07-29T12:31:12;28.60;70.80
20921;DHT22;10620;52.472;21.028;2022-07-29T12:34:03;29.40;61.30
20921;DHT22;10620;52.472;21.028;2022-07-29T12:36:32;29.90;62.30
20921;DHT22;10620;52.472;21.028;2022-07-29T12:39:01;30.70;58.90
20921;DHT22;10620;52.472;21.028;2022-07-29T12:41:30;31.40;55.80
20921;DHT22;10620;52.472;21.028;2022-07-29T12:43:59;31.70;56.80
20921;DHT22;10620;52.472;21.028;2022-07-29T12:46:30;31.90;54.30
20921;DHT22;10620;52.472;21.028;2022-07-29T12:48:59;31.20;50.00
20921;DHT22;10620;52.472;21.028;2022-07-29T12:51:30;30.70;52.80
20921;DHT22;10620;52.472;21.028;2022-07-29T12:54:03;30.00;50.10
20921;DHT22;10620;52.472;21.028;2022-07-29T12:56:33;29.40;50.70
20921;DHT22;10620;52.472;21.028;2022-07-29T12:59:11;29.10;54.90
20921;DHT22;10620;52.472;21.028;2022-07-29T13:01:41;29.10;54.70
20921;DHT22;10620;52.472;21.028;2022-07-29T13:04:10;28.50;52.60
20921;DHT22;10620;52.472;21.028;2022-07-29T13:06:40;27.60;53.80
20921;DHT22;10620;52.472;21.028;2022-07-29T13:09:13;27.20;56.50
20921;DHT22;10620;52.472;21.028;2022-07-29T13:11:43;27.00;54.70
20921;DHT22;10620;52.472;21.028;2022-07-29T13:14:29;26.60;58.60
20921;DHT22;10620;52.472;21.028;2022-07-29T13:17:04;26.80;59.20
20921;DHT22;10620;52.472;21.028;2022-07-29T13:19:34;26.90;60.90
20921;DHT22;10620;52.472;21.028;2022-07-29T13:22:04;27.00;59.10
20921;DHT22;10620;52.472;21.028;2022-07-29T13:24:33;27.20;60.10
20921;DHT22;10620;52.472;21.028;2022-07-29T13:27:01;27.30;59.30
20921;DHT22;10620;52.472;21.028;2022-07-29T13:29:32;27.30;57.00
20921;DHT22;10620;52.472;21.028;2022-07-29T13:32:01;27.20;57.00
20921;DHT22;10620;52.472;21.028;2022-07-29T13:34:31;27.10;60.00
20921;DHT22;10620;52.472;21.028;2022-07-29T13:37:00;27.00;58.20
20921;DHT22;10620;52.472;21.028;2022-07-29T13:39:28;26.90;60.00
20921;DHT22;10620;52.472;21.028;2022-07-29T13:41:57;26.90;59.60
20921;DHT22;10620;52.472;21.028;2022-07-29T13:44:27;26.80;58.20
20921;DHT22;10620;52.472;21.028;2022-07-29T13:46:56;26.60;57.50
20921;DHT22;10620;52.472;21.028;2022-07-29T13:49:26;26.40;59.60
20921;DHT22;10620;52.472;21.028;2022-07-29T13:51:56;26.50;57.50
20921;DHT22;10620;52.472;21.028;2022-07-29T13:54:26;26.50;59.00
20921;DHT22;10620;52.472;21.028;2022-07-29T13:56:55;26.40;57.20
20921;DHT22;10620;52.472;21.028;2022-07-29T13:59:24;26.30;60.70
20921;DHT22;10620;52.472;21.028;2022-07-29T14:01:53;26.30;59.80
20921;DHT22;10620;52.472;21.028;2022-07-29T14:04:22;26.40;59.50
20921;DHT22;10620;52.472;21.028;2022-07-29T14:06:51;26.50;59.10
20921;DHT22;10620;52.472;21.028;2022-07-29T14:09:21;26.50;60.10
20921;DHT22;10620;52.472;21.028;2022-07-29T14:11:50;26.30;60.00
20921;DHT22;10620;52.472;21.028;2022-07-29T14:14:20;26.10;63.90
20921;DHT22;10620;52.472;21.028;2022-07-29T14:16:49;26.10;63.50
20921;DHT22;10620;52.472;21.028;2022-07-29T14:19:18;26.20;59.30
20921;DHT22;10620;52.472;21.028;2022-07-29T14:21:47;26.20;62.50
20921;DHT22;10620;52.472;21.028;2022-07-29T14:24:16;26.30;63.00
20921;DHT22;10620;52.472;21.028;2022-07-29T14:26:50;26.30;66.40
20921;DHT22;10620;52.472;21.028;2022-07-29T14:29:19;26.40;67.10
20921;DHT22;10620;52.472;21.028;2022-07-29T14:31:48;26.50;59.90
20921;DHT22;10620;52.472;21.028;2022-07-29T14:34:17;26.70;59.50
20921;DHT22;10620;52.472;21.028;2022-07-29T14:36:46;26.60;61.50
20921;DHT22;10620;52.472;21.028;2022-07-29T14:39:14;26.70;64.30
20921;DHT22;10620;52.472;21.028;2022-07-29T14:41:44;26.70;62.90
20921;DHT22;10620;52.472;21.028;2022-07-29T14:44:14;26.70;65.90
20921;DHT22;10620;52.472;21.028;2022-07-29T14:46:43;26.60;62.90
20921;DHT22;10620;52.472;21.028;2022-07-29T14:49:15;26.60;60.90
20921;DHT22;10620;52.472;21.028;2022-07-29T14:51:44;26.70;58.90
20921;DHT22;10620;52.472;21.028;2022-07-29T14:54:13;26.70;63.70
20921;DHT22;10620;52.472;21.028;2022-07-29T14:56:41;26.70;58.80
20921;DHT22;10620;52.472;21.028;2022-07-29T14:59:14;26.90;57.40
20921;DHT22;10620;52.472;21.028;2022-07-29T15:01:43;26.90;61.00
20921;DHT22;10620;52.472;21.028;2022-07-29T15:04:12;27.10;59.30
20921;DHT22;10620;52.472;21.028;2022-07-29T15:06:40;27.40;59.80
20921;DHT22;10620;52.472;21.028;2022-07-29T15:09:10;27.40;60.90
20921;DHT22;10620;52.472;21.028;2022-07-29T15:11:39;27.60;59.90
20921;DHT22;10620;52.472;21.028;2022-07-29T15:14:07;27.50;61.40
20921;DHT22;10620;52.472;21.028;2022-07-29T15:16:38;27.50;62.20
20921;DHT22;10620;52.472;21.028;2022-07-29T15:19:12;27.70;59.00
20921;DHT22;10620;52.472;21.028;2022-07-29T15:21:41;27.60;58.20
20921;DHT22;10620;52.472;21.028;2022-07-29T15:24:16;27.10;58.00
20921;DHT22;10620;52.472;21.028;2022-07-29T15:26:45;26.60;59.20
20921;DHT22;10620;52.472;21.028;2022-07-29T15:29:14;26.90;57.80
20921;DHT22;10620;52.472;21.028;2022-07-29T15:31:44;27.50;56.40
20921;DHT22;10620;52.472;21.028;2022-07-29T15:34:14;27.60;55.10
20921;DHT22;10620;52.472;21.028;2022-07-29T15:36:42;27.50;55.30
20921;DHT22;10620;52.472;21.028;2022-07-29T15:39:20;27.10;54.70
20921;DHT22;10620;52.472;21.028;2022-07-29T15:41:49;26.80;55.20
20921;DHT22;10620;52.472;21.028;2022-07-29T15:44:18;26.60;57.90
20921;DHT22;10620;52.472;21.028;2022-07-29T15:46:48;26.60;58.00
20921;DHT22;10620;52.472;21.028;2022-07-29T15:49:35;26.60;60.80
20921;DHT22;10620;52.472;21.028;2022-07-29T15:52:16;26.80;60.00
20921;DHT22;10620;52.472;21.028;2022-07-29T15:54:53;26.90;60.60
20921;DHT22;10620;52.472;21.028;2022-07-29T15:57:22;27.00;58.50
20921;DHT22;10620;52.472;21.028;2022-07-29T15:59:51;27.20;56.70
20921;DHT22;10620;52.472;21.028;2022-07-29T16:02:21;27.30;60.00
20921;DHT22;10620;52.472;21.028;2022-07-29T16:04:50;27.10;58.80
20921;DHT22;10620;52.472;21.028;2022-07-29T16:07:18;26.60;61.50
20921;DHT22;10620;52.472;21.028;2022-07-29T16:09:48;26.10;64.40